Time;durP1;ratioP1;P1;durP2;ratioP2;P2;SDS_P1;SDS_P2;PMS_P1;PMS_P2;Temp;Humidity;BMP_temperature;BMP_pressure;BME280_temperature;BME280_humidity;BME280_pressure;Samples;Min_cycle;Max_cycle;Signal;HPM_P1;HPM_P2
2022/08/12 00:43:58;;;;;;;9.10;5.65;;;18.10;99.90;;;;;;5045393;28;20048;-67
2022/08/12 00:46:35;;;;;;;9.35;6.25;;;18.10;99.90;;;;;;5050071;28;20505;-67
2022/08/12 00:49:01;;;;;;;8.02;6.07;;;18.00;99.90;;;;;;5050576;28;20076;-67
2022/08/12 00:52:04;;;;;;;7.07;5.95;;;18.00;99.90;;;;;;5047272;28;20067;-67
2022/08/12 00:54:15;;;;;;;9.57;6.53;;;18.00;99.90;;;;;;5049517;28;20049;-67
2022/08/12 00:56:41;;;;;;;8.35;6.32;;;18.00;99.90;;;;;;5050431;28;20131;-67
2022/08/12 00:59:08;;;;;;;10.35;6.50;;;17.90;99.90;;;;;;5045336;28;20041;-67
2022/08/12 01:01:35;;;;;;;8.55;6.75;;;17.70;99.90;;;;;;5049712;28;20029;-67
2022/08/12 01:12:25;;;;;;;10.13;6.47;;;17.70;99.90;;;;;;5053861;28;20045;-67
2022/08/12 01:14:52;;;;;;;9.13;7.22;;;17.80;99.90;;;;;;5051125;28;20043;-67
2022/08/12 01:17:21;;;;;;;17.48;7.70;;;17.70;99.90;;;;;;5035865;28;20515;-67
2022/08/12 01:19:51;;;;;;;10.35;6.63;;;17.80;99.90;;;;;;5054061;28;20080;-67
2022/08/12 01:22:33;;;;;;;10.45;7.00;;;17.70;99.90;;;;;;5053866;28;20407;-67
2022/08/12 01:25:33;;;;;;;8.35;6.80;;;17.60;99.90;;;;;;5051543;28;20068;-67
2022/08/12 01:28:01;;;;;;;12.32;7.47;;;17.60;99.90;;;;;;5031401;28;20400;-67
2022/08/12 01:30:32;;;;;;;7.68;6.43;;;17.50;99.90;;;;;;5051973;28;20052;-67
2022/08/12 01:33:01;;;;;;;8.52;6.97;;;17.40;99.90;;;;;;5052661;28;20051;-67
2022/08/12 01:35:31;;;;;;;9.05;6.97;;;17.40;99.90;;;;;;5053621;28;20183;-67
2022/08/12 01:38:04;;;;;;;10.88;6.90;;;17.30;99.90;;;;;;5053851;28;20047;-67
2022/08/12 01:40:32;;;;;;;10.15;6.68;;;17.20;99.90;;;;;;5051427;28;20040;-67
2022/08/12 01:43:05;;;;;;;8.98;6.97;;;17.20;99.90;;;;;;5046284;28;20044;-67
2022/08/12 01:45:33;;;;;;;7.03;6.32;;;17.20;99.90;;;;;;5053857;28;20037;-67
2022/08/12 01:48:14;;;;;;;8.27;7.18;;;17.20;99.90;;;;;;5033206;28;20036;-67
2022/08/12 01:51:02;;;;;;;8.48;7.05;;;17.10;99.90;;;;;;5053476;28;20490;-67
2022/08/12 01:54:05;;;;;;;9.93;7.57;;;17.10;99.90;;;;;;5053077;28;20082;-67
2022/08/12 01:56:57;;;;;;;10.40;7.35;;;17.10;99.90;;;;;;5050657;28;20079;-67
2022/08/12 01:59:55;;;;;;;9.55;7.15;;;17.20;99.90;;;;;;5052110;28;20041;-67
2022/08/12 02:02:35;;;;;;;10.82;7.28;;;17.20;99.90;;;;;;5053267;28;20045;-67
2022/08/12 02:11:27;;;;;;;8.07;6.80;;;17.10;99.90;;;;;;5052910;28;20056;-67
2022/08/12 02:14:12;;;;;;;8.88;6.68;;;17.00;99.90;;;;;;5050944;28;20037;-66
2022/08/12 02:16:40;;;;;;;9.02;6.95;;;17.00;99.90;;;;;;5052388;28;20118;-67
2022/08/12 02:19:33;;;;;;;11.15;8.63;;;16.90;99.90;;;;;;5052951;28;20044;-67
2022/08/12 02:22:23;;;;;;;9.80;7.30;;;16.90;99.90;;;;;;5049791;28;20391;-67
2022/08/12 02:24:52;;;;;;;7.85;6.85;;;16.80;99.90;;;;;;5052793;28;20033;-67
2022/08/12 02:27:20;;;;;;;11.48;7.88;;;16.70;99.90;;;;;;5034992;28;20138;-67
2022/08/12 02:29:47;;;;;;;7.50;6.70;;;16.70;99.90;;;;;;5031710;28;20547;-67
2022/08/12 02:32:13;;;;;;;11.48;7.28;;;16.60;99.90;;;;;;5051542;28;20044;-67
2022/08/12 02:34:42;;;;;;;11.30;7.20;;;16.60;99.90;;;;;;5052775;28;20076;-67
2022/08/12 02:37:12;;;;;;;8.75;7.75;;;16.50;99.90;;;;;;5050570;28;20196;-67
2022/08/12 02:39:43;;;;;;;11.45;7.65;;;16.40;99.90;;;;;;5052202;28;20040;-67
2022/08/12 02:42:10;;;;;;;8.85;7.75;;;16.30;99.90;;;;;;5060153;28;20037;-67
2022/08/12 02:44:40;;;;;;;9.98;7.07;;;16.20;99.90;;;;;;5052527;28;20608;-67
2022/08/12 02:47:07;;;;;;;10.70;8.02;;;16.20;99.90;;;;;;5049961;28;20132;-67
2022/08/12 02:49:38;;;;;;;9.68;8.23;;;16.20;99.90;;;;;;5052079;28;20048;-67
2022/08/12 02:52:04;;;;;;;;;;;16.20;99.90;;;;;;5052470;28;20112;-67
2022/08/12 02:54:30;;;;;;;9.32;7.88;;;16.20;99.90;;;;;;5049959;28;19967;-67
2022/08/12 02:56:57;;;;;;;12.95;8.02;;;16.20;99.90;;;;;;5051714;28;20044;-67
2022/08/12 02:59:26;;;;;;;10.68;7.20;;;16.20;99.90;;;;;;5051764;28;20051;-67
2022/08/12 03:02:02;;;;;;;15.90;8.68;;;16.30;99.90;;;;;;5052156;28;20029;-67
2022/08/12 03:04:48;;;;;;;13.10;9.15;;;16.30;99.90;;;;;;5049064;28;20365;-67
2022/08/12 03:07:20;;;;;;;12.68;9.20;;;16.40;99.90;;;;;;5052024;28;20269;-67
2022/08/12 03:09:53;;;;;;;13.48;8.70;;;16.40;99.90;;;;;;5052128;28;20041;-67
2022/08/12 03:12:20;;;;;;;12.25;9.13;;;16.40;99.90;;;;;;5046656;28;20032;-67
2022/08/12 03:14:47;;;;;;;13.98;9.77;;;16.50;99.90;;;;;;5051576;28;20495;-67
2022/08/12 03:17:28;;;;;;;14.07;9.98;;;16.50;99.90;;;;;;5051610;28;20065;-67
2022/08/12 03:19:56;;;;;;;12.25;9.25;;;16.50;99.90;;;;;;5050098;28;20048;-67
2022/08/12 03:22:22;;;;;;;10.07;8.73;;;16.60;99.90;;;;;;5050503;28;20037;-67
2022/08/12 03:24:49;;;;;;;12.05;9.20;;;16.50;99.90;;;;;;5052086;28;20040;-67
2022/08/12 03:27:15;;;;;;;12.13;9.25;;;16.60;99.90;;;;;;5049593;28;20399;-67
2022/08/12 03:29:46;;;;;;;10.75;9.05;;;16.50;99.90;;;;;;5049435;28;20048;-67
2022/08/12 03:32:13;;;;;;;11.98;9.43;;;16.50;99.90;;;;;;5033058;28;20487;-67
2022/08/12 03:34:40;;;;;;;10.25;8.38;;;16.50;99.90;;;;;;5051515;28;20084;-67
2022/08/12 03:37:07;;;;;;;11.95;8.57;;;16.40;99.90;;;;;;5048894;28;20564;-67
2022/08/12 03:42:22;;;;;;;;;;;16.00;99.90;;;;;;5037842;28;20046;-67
2022/08/12 04:01:55;;;;;;;7.40;5.38;;;15.60;99.90;;;;;;5044986;28;20044;-67
2022/08/12 04:04:33;;;;;;;10.73;5.80;;;15.50;99.90;;;;;;5058751;28;20043;-67
2022/08/12 04:07:05;;;;;;;12.75;5.97;;;15.50;99.90;;;;;;5049491;28;20033;-67
2022/08/12 04:09:31;;;;;;;11.20;6.13;;;15.40;99.90;;;;;;5048623;28;20052;-67
2022/08/12 04:14:41;;;;;;;12.40;6.18;;;15.30;99.90;;;;;;5043859;28;20551;-67
2022/08/12 04:17:07;;;;;;;8.55;6.25;;;15.30;99.90;;;;;;5032687;28;20128;-67
2022/08/12 04:19:33;;;;;;;10.75;6.40;;;15.30;99.90;;;;;;5047799;28;20037;-67
2022/08/12 04:22:00;;;;;;;11.07;6.50;;;15.30;99.90;;;;;;5050128;28;20036;-67
2022/08/12 04:24:26;;;;;;;10.65;6.68;;;15.30;99.90;;;;;;5050146;28;20047;-67
2022/08/12 04:26:52;;;;;;;11.85;7.30;;;15.20;99.90;;;;;;5048077;28;20572;-66
2022/08/12 04:29:22;;;;;;;10.30;5.40;;;15.20;99.90;;;;;;5049963;28;20028;-67
2022/08/12 04:31:48;;;;;;;11.93;6.93;;;15.20;99.90;;;;;;5050525;28;20033;-67
2022/08/12 04:34:15;;;;;;;10.27;6.80;;;15.20;99.90;;;;;;5045851;28;20834;-66
2022/08/12 04:36:41;;;;;;;10.30;6.78;;;15.20;99.90;;;;;;5049546;28;20402;-67
2022/08/12 04:39:09;;;;;;;10.95;5.63;;;15.30;99.90;;;;;;5049579;28;20124;-67
2022/08/12 04:41:36;;;;;;;9.88;6.50;;;15.30;99.90;;;;;;5031895;28;20040;-67
2022/08/12 04:44:02;;;;;;;13.48;7.80;;;15.50;99.90;;;;;;5048140;28;20041;-67
2022/08/12 04:46:28;;;;;;;12.10;7.82;;;15.60;99.90;;;;;;5049861;28;20033;-67
2022/08/12 04:48:54;;;;;;;11.93;7.28;;;15.70;99.90;;;;;;5050354;28;20029;-67
2022/08/12 04:51:21;;;;;;;12.70;7.75;;;15.80;99.90;;;;;;5046841;28;20095;-67
2022/08/12 04:53:48;;;;;;;13.10;7.15;;;16.00;99.90;;;;;;5035844;28;20056;-67
2022/08/12 04:56:14;;;;;;;12.13;6.95;;;16.00;99.90;;;;;;5050290;28;20037;-67
2022/08/12 04:58:41;;;;;;;12.07;7.25;;;16.10;99.90;;;;;;5050273;28;20037;-67
2022/08/12 05:01:07;;;;;;;11.60;7.03;;;16.10;99.90;;;;;;5028916;28;20465;-67
2022/08/12 05:03:39;;;;;;;14.20;7.15;;;16.30;99.90;;;;;;5049405;28;20033;-67
2022/08/12 05:06:06;;;;;;;14.07;7.55;;;16.30;99.90;;;;;;5032158;28;20045;-67
2022/08/12 05:08:32;;;;;;;10.82;7.15;;;16.40;99.90;;;;;;5046850;28;20399;-66
2022/08/12 05:10:58;;;;;;;9.40;6.78;;;16.50;99.90;;;;;;5049861;28;20119;-67
2022/08/12 05:13:35;;;;;;;11.38;6.53;;;16.50;99.90;;;;;;5049624;28;20083;-66
2022/08/12 05:16:02;;;;;;;12.05;6.80;;;16.50;99.90;;;;;;5048389;28;20037;-66
2022/08/12 05:18:27;;;;;;;13.15;7.10;;;16.60;99.90;;;;;;5031132;28;20029;-66
2022/08/12 05:20:53;;;;;;;16.30;7.70;;;16.70;99.90;;;;;;5049003;28;20041;-66
2022/08/12 05:23:20;;;;;;;10.68;6.95;;;16.70;99.90;;;;;;5050207;28;20077;-66
2022/08/12 05:25:47;;;;;;;17.42;6.97;;;16.80;99.90;;;;;;5044845;28;20068;-67
2022/08/12 05:28:17;;;;;;;11.80;7.43;;;16.80;99.90;;;;;;5049647;28;20091;-66
2022/08/12 05:30:44;;;;;;;11.77;7.03;;;16.90;99.90;;;;;;5049823;28;20082;-66
2022/08/12 05:33:11;;;;;;;10.80;6.97;;;16.90;99.90;;;;;;5046329;28;20056;-66
2022/08/12 05:35:40;;;;;;;11.85;7.63;;;17.00;99.90;;;;;;5049766;28;20087;-67
2022/08/12 05:40:50;;;;;;;13.10;7.25;;;17.10;99.90;;;;;;5047268;28;20458;-66
2022/08/12 05:43:16;;;;;;;11.77;6.68;;;17.10;99.90;;;;;;5048766;28;20040;-67
2022/08/12 05:45:43;;;;;;;11.50;6.47;;;17.20;99.90;;;;;;5049542;28;20479;-66
2022/08/12 05:48:09;;;;;;;10.02;6.75;;;17.30;99.90;;;;;;5049680;28;20376;-67
2022/08/12 05:50:35;;;;;;;10.50;6.80;;;17.30;99.90;;;;;;5046865;28;20044;-66
2022/08/12 05:53:01;;;;;;;11.57;6.38;;;17.40;99.90;;;;;;5052280;28;20204;-66
2022/08/12 05:55:27;;;;;;;10.73;6.68;;;17.50;99.90;;;;;;5053307;28;20048;-66
2022/08/12 05:57:56;;;;;;;13.60;6.60;;;17.70;99.90;;;;;;5051130;28;20029;-66
2022/08/12 06:00:28;;;;;;;10.20;6.35;;;17.70;99.90;;;;;;5025541;28;20455;-66
2022/08/12 06:02:59;;;;;;;9.43;6.13;;;17.80;99.90;;;;;;5065228;22;20049;-66
2022/08/12 06:05:26;;;;;;;13.23;6.13;;;17.90;99.90;;;;;;5052995;28;20048;-67
2022/08/12 06:07:58;;;;;;;9.68;6.38;;;18.00;99.90;;;;;;5033681;28;20048;-67
2022/08/12 06:10:23;;;;;;;10.85;6.28;;;18.10;99.90;;;;;;5057760;28;20037;-67
2022/08/12 06:12:49;;;;;;;11.93;6.32;;;18.20;99.90;;;;;;5034348;28;20113;-67
2022/08/12 06:15:16;;;;;;;10.20;5.97;;;18.30;99.90;;;;;;5053122;28;20037;-67
2022/08/12 06:17:42;;;;;;;11.00;6.00;;;18.30;99.90;;;;;;5059351;28;20036;-67
2022/08/12 06:20:12;;;;;;;9.63;5.38;;;18.40;99.90;;;;;;5053142;28;20037;-67
2022/08/12 06:22:38;;;;;;;10.57;6.27;;;18.50;99.90;;;;;;5051823;28;20044;-67
2022/08/12 06:25:05;;;;;;;11.82;5.60;;;18.50;99.90;;;;;;5065830;28;20071;-67
2022/08/12 06:27:33;;;;;;;13.98;6.05;;;18.60;99.90;;;;;;5059795;28;20044;-67
2022/08/12 06:30:01;;;;;;;10.55;5.70;;;18.70;99.90;;;;;;5034974;28;20116;-67
2022/08/12 06:32:27;;;;;;;8.32;5.53;;;18.70;99.90;;;;;;5055282;28;20060;-67
2022/08/12 06:34:55;;;;;;;11.50;6.07;;;18.80;99.90;;;;;;5051837;28;20029;-67
2022/08/12 06:37:22;;;;;;;8.85;5.85;;;18.90;99.90;;;;;;5052666;28;20052;-67
2022/08/12 06:39:47;;;;;;;11.15;6.30;;;19.00;99.90;;;;;;5050389;28;20025;-67
2022/08/12 06:44:57;;;;;;;8.27;5.70;;;19.20;99.90;;;;;;5052529;28;20120;-67
2022/08/12 06:47:23;;;;;;;7.85;5.50;;;19.30;99.90;;;;;;5034937;28;20123;-67
2022/08/12 06:49:48;;;;;;;11.25;5.63;;;19.40;99.90;;;;;;5057545;28;20388;-67
2022/08/12 06:52:16;;;;;;;13.05;5.63;;;19.60;99.90;;;;;;5053899;28;20560;-67
2022/08/12 06:54:43;;;;;;;12.10;5.32;;;19.80;99.90;;;;;;5051881;28;20055;-67
2022/08/12 06:57:08;;;;;;;10.48;5.55;;;19.90;99.90;;;;;;5050799;28;21984;-67
2022/08/12 06:59:34;;;;;;;8.95;5.07;;;20.00;99.90;;;;;;5056201;28;20025;-67
2022/08/12 07:02:00;;;;;;;8.90;5.30;;;20.10;99.90;;;;;;5051433;28;20036;-67
2022/08/12 07:04:25;;;;;;;10.70;5.65;;;20.20;99.90;;;;;;5050265;28;20402;-67
2022/08/12 07:06:54;;;;;;;7.35;4.80;;;20.40;99.90;;;;;;5056778;28;20059;-67
2022/08/12 07:09:20;;;;;;;11.43;5.20;;;20.50;99.90;;;;;;5053869;28;20048;-67
2022/08/12 07:11:45;;;;;;;7.22;4.80;;;20.60;99.90;;;;;;5051226;28;20041;-67
2022/08/12 07:14:11;;;;;;;7.65;5.18;;;20.80;99.90;;;;;;5053801;28;20116;-67
2022/08/12 07:16:52;;;;;;;11.30;5.38;;;20.90;99.90;;;;;;5056267;28;20112;-67
2022/08/12 07:19:19;;;;;;;10.52;5.15;;;21.00;99.90;;;;;;5054881;28;20037;-67
2022/08/12 07:21:46;;;;;;;7.32;4.90;;;21.10;99.90;;;;;;5049987;28;20374;-67
2022/08/12 07:24:12;;;;;;;6.97;5.22;;;21.10;99.90;;;;;;5036023;28;20033;-67
2022/08/12 07:26:40;;;;;;;7.30;5.00;;;21.30;99.90;;;;;;5051526;28;20537;-67
2022/08/12 07:29:09;;;;;;;8.77;5.38;;;21.40;99.90;;;;;;5030620;28;20053;-67
2022/08/12 07:31:38;;;;;;;11.00;5.43;;;21.40;99.90;;;;;;5068245;28;20494;-67
2022/08/12 07:34:04;;;;;;;10.02;5.32;;;21.50;99.90;;;;;;5054443;28;20509;-67
2022/08/12 07:36:34;;;;;;;10.70;5.55;;;21.60;99.90;;;;;;5051116;28;20454;-67
2022/08/12 07:39:01;;;;;;;8.45;5.03;;;21.60;99.90;;;;;;5055566;28;20036;-67
2022/08/12 07:41:30;;;;;;;8.68;5.35;;;21.80;99.90;;;;;;5051337;28;20170;-67
2022/08/12 07:44:01;;;;;;;12.07;5.82;;;21.90;99.90;;;;;;5033367;28;20076;-67
2022/08/12 07:46:30;;;;;;;7.88;5.68;;;22.10;99.90;;;;;;5051356;28;20036;-67
2022/08/12 07:49:00;;;;;;;9.32;5.78;;;22.10;99.90;;;;;;5054181;28;20056;-67
2022/08/12 07:51:26;;;;;;;8.88;5.70;;;22.30;99.90;;;;;;5052135;28;20033;-67
2022/08/12 07:53:58;;;;;;;11.55;5.80;;;22.40;99.90;;;;;;5050894;28;20037;-67
2022/08/12 07:56:24;;;;;;;8.95;5.80;;;22.50;99.80;;;;;;5056229;28;20139;-67
2022/08/12 07:58:50;;;;;;;10.20;6.18;;;22.60;99.90;;;;;;5056673;28;20029;-67
2022/08/12 08:01:20;;;;;;;13.60;5.82;;;22.70;99.90;;;;;;5050414;28;20074;-67
2022/08/12 08:06:39;;;;;;;8.98;6.40;;;22.70;99.90;;;;;;5066111;28;20076;-67
2022/08/12 08:09:05;;;;;;;11.43;5.90;;;22.80;99.90;;;;;;5032877;28;20116;-67
2022/08/12 08:14:15;;;;;;;7.93;5.00;;;23.10;99.40;;;;;;5061720;28;20123;-67
2022/08/12 08:16:41;;;;;;;10.63;5.20;;;23.20;99.90;;;;;;5038979;28;20457;-67
2022/08/12 08:19:09;;;;;;;11.75;5.40;;;23.30;99.20;;;;;;5091183;28;20472;-67
2022/08/12 08:21:35;;;;;;;7.20;4.80;;;23.30;99.70;;;;;;5074720;28;20107;-67
2022/08/12 08:24:13;;;;;;;9.25;5.05;;;23.40;99.50;;;;;;5058055;28;20041;-67
2022/08/12 08:26:43;;;;;;;9.77;5.22;;;23.50;98.10;;;;;;5050417;28;20506;-67
2022/08/12 08:29:11;;;;;;;7.15;4.63;;;23.60;98.80;;;;;;5056073;28;20051;-67
2022/08/12 08:31:42;;;;;;;9.95;5.10;;;23.60;99.90;;;;;;5050122;28;20036;-67
2022/08/12 08:34:08;;;;;;;8.83;5.17;;;23.80;99.40;;;;;;5050429;28;20090;-67
2022/08/12 08:36:34;;;;;;;9.93;4.82;;;23.80;99.40;;;;;;5050312;28;20120;-67
2022/08/12 08:38:59;;;;;;;7.03;4.88;;;23.90;98.20;;;;;;5053271;28;20151;-67
2022/08/12 08:44:10;;;;;;;7.03;4.82;;;24.20;98.30;;;;;;5050265;28;20625;-67
2022/08/12 08:46:36;;;;;;;8.95;5.13;;;24.20;99.40;;;;;;5035914;28;20116;-67
2022/08/12 08:49:04;;;;;;;9.40;5.20;;;24.20;99.60;;;;;;5052625;28;20163;-67
2022/08/12 08:51:30;;;;;;;6.32;5.05;;;24.30;99.60;;;;;;5050010;28;20182;-67
2022/08/12 08:53:55;;;;;;;8.93;5.00;;;24.30;99.30;;;;;;5048782;28;20509;-67
2022/08/12 08:56:21;;;;;;;7.15;5.10;;;24.30;99.20;;;;;;5049369;28;20041;-67
2022/08/12 08:58:48;;;;;;;7.03;5.25;;;24.40;98.30;;;;;;5050061;28;20072;-67
2022/08/12 09:01:20;;;;;;;6.60;5.30;;;24.50;98.60;;;;;;5049912;28;20037;-67
2022/08/12 09:03:46;;;;;;;6.32;4.75;;;24.60;97.90;;;;;;5050125;28;20052;-67
2022/08/12 09:06:13;;;;;;;9.15;5.22;;;24.70;97.60;;;;;;5031887;28;20045;-67
2022/08/12 09:08:40;;;;;;;9.05;5.53;;;24.80;97.80;;;;;;5050284;28;20131;-67
2022/08/12 09:13:50;;;;;;;7.88;5.07;;;25.00;97.30;;;;;;5050036;28;20132;-67
2022/08/12 09:16:16;;;;;;;8.15;5.55;;;25.30;95.80;;;;;;5049668;28;20128;-67
2022/08/12 09:18:42;;;;;;;11.70;5.40;;;25.50;92.80;;;;;;5076354;28;20612;-67
2022/08/12 09:21:09;;;;;;;8.45;5.38;;;25.60;93.80;;;;;;5057185;28;20123;-67
2022/08/12 09:23:37;;;;;;;6.85;5.38;;;25.80;92.00;;;;;;5031446;28;20028;-67
2022/08/12 09:26:03;;;;;;;7.43;5.68;;;25.90;92.40;;;;;;5049425;28;20475;-68
2022/08/12 09:28:30;;;;;;;7.03;5.65;;;26.00;93.70;;;;;;5052059;28;20033;-67
2022/08/12 09:30:57;;;;;;;8.02;5.40;;;26.20;93.20;;;;;;5055343;28;20056;-67
2022/08/12 09:33:27;;;;;;;6.90;4.80;;;26.40;91.50;;;;;;5052660;28;20263;-67
2022/08/12 09:35:53;;;;;;;8.27;5.30;;;26.40;93.30;;;;;;5037952;28;20338;-68
2022/08/12 09:38:19;;;;;;;7.50;5.15;;;26.50;92.80;;;;;;5052858;28;20506;-68
2022/08/12 09:40:46;;;;;;;8.82;5.50;;;26.70;91.50;;;;;;5053284;28;20029;-67
2022/08/12 09:45:59;;;;;;;7.88;4.90;;;27.00;92.00;;;;;;5056133;28;20036;-67
2022/08/12 09:48:25;;;;;;;9.77;5.20;;;27.00;92.10;;;;;;5057574;28;20036;-68
2022/08/12 09:50:51;;;;;;;6.88;5.43;;;27.10;90.40;;;;;;5054257;28;20118;-68
2022/08/12 09:53:23;;;;;;;8.80;5.18;;;27.30;85.00;;;;;;5057181;28;20060;-67
2022/08/12 09:55:55;;;;;;;7.65;5.20;;;27.40;87.20;;;;;;5057835;28;20029;-67
2022/08/12 09:58:33;;;;;;;6.50;5.20;;;27.60;89.90;;;;;;5053308;28;20078;-67
2022/08/12 10:01:04;;;;;;;9.10;5.70;;;27.80;88.50;;;;;;5051760;28;20512;-67
2022/08/12 10:03:30;;;;;;;;;;;27.90;87.40;;;;;;5053095;28;20036;-67
2022/08/12 10:05:58;;;;;;;8.15;4.22;;;27.90;71.50;;;;;;5053322;28;19920;-67
2022/08/12 10:08:31;;;;;;;7.95;4.68;;;28.00;82.00;;;;;;5052001;28;20048;-67
2022/08/12 10:13:47;;;;;;;6.22;4.30;;;28.10;78.50;;;;;;5052663;28;20128;-67
2022/08/12 10:16:17;;;;;;;9.18;4.35;;;28.40;83.70;;;;;;5053233;28;20116;-67
2022/08/12 10:18:56;;;;;;;6.55;4.63;;;28.50;77.00;;;;;;5048026;28;20040;-67
2022/08/12 10:21:21;;;;;;;7.90;4.90;;;28.50;71.70;;;;;;5068801;28;20056;-67
2022/08/12 10:23:49;;;;;;;6.90;4.38;;;28.50;81.60;;;;;;5056473;28;20068;-66
2022/08/12 10:31:56;;;;;;;7.82;4.30;;;28.80;74.80;;;;;;5052842;28;20052;-68
2022/08/12 10:34:23;;;;;;;12.30;4.38;;;28.90;70.50;;;;;;5059168;28;20076;-68
2022/08/12 10:36:57;;;;;;;7.30;4.88;;;29.00;72.60;;;;;;5068227;28;20598;-68
2022/08/12 10:39:31;;;;;;;8.70;4.22;;;29.00;71.80;;;;;;5071427;28;20101;-66
2022/08/12 10:44:48;;;;;;;11.75;4.68;;;29.10;67.50;;;;;;5051967;28;20040;-67
2022/08/12 10:47:15;;;;;;;5.25;4.00;;;29.20;69.80;;;;;;5052377;28;20045;-68
2022/08/12 10:49:43;;;;;;;4.68;3.80;;;29.30;61.30;;;;;;5051059;28;20045;-67
2022/08/12 10:52:09;;;;;;;7.70;4.07;;;29.40;70.00;;;;;;5060228;28;20079;-67
2022/08/12 10:54:35;;;;;;;12.43;4.50;;;29.30;69.70;;;;;;5052341;28;20060;-67
2022/08/12 10:57:01;;;;;;;9.65;4.35;;;29.40;70.00;;;;;;5052591;28;20041;-67
2022/08/12 10:59:28;;;;;;;7.38;4.18;;;29.40;68.80;;;;;;5045796;28;20093;-67
2022/08/12 11:01:55;;;;;;;15.20;4.40;;;29.50;63.70;;;;;;5062606;28;20068;-67
2022/08/12 11:04:21;;;;;;;5.68;3.83;;;29.50;64.80;;;;;;5060336;28;20116;-67
2022/08/12 11:06:49;;;;;;;12.27;3.67;;;29.60;65.00;;;;;;5051891;28;20053;-68
2022/08/12 11:09:23;;;;;;;5.15;3.55;;;29.70;58.00;;;;;;5052881;28;20039;-67
2022/08/12 11:11:49;;;;;;;6.50;3.35;;;29.70;59.00;;;;;;5056663;28;20029;-67
2022/08/12 11:14:31;;;;;;;7.20;3.65;;;29.70;65.40;;;;;;5051539;28;20083;-67
2022/08/12 11:16:59;;;;;;;4.97;4.10;;;29.80;61.60;;;;;;5056204;28;20397;-68
2022/08/12 11:19:25;;;;;;;6.93;4.20;;;30.00;62.90;;;;;;5065681;28;20051;-68
2022/08/12 11:21:54;;;;;;;6.25;4.30;;;30.00;60.10;;;;;;5071352;28;20107;-68
2022/08/12 11:24:20;;;;;;;11.00;3.88;;;30.20;59.80;;;;;;5071874;28;20040;-68
2022/08/12 11:26:48;;;;;;;7.63;3.70;;;30.20;58.60;;;;;;5054678;28;20187;-68
2022/08/12 11:29:18;;;;;;;7.35;4.20;;;30.30;59.60;;;;;;5067759;28;20076;-68
2022/08/12 11:31:44;;;;;;;9.63;4.50;;;30.40;58.60;;;;;;5071178;28;20036;-68
2022/08/12 11:34:10;;;;;;;4.75;3.90;;;30.50;59.00;;;;;;5051250;28;20044;-68
2022/08/12 11:36:36;;;;;;;7.03;4.13;;;30.50;57.10;;;;;;5063850;28;20064;-68
2022/08/12 11:39:02;;;;;;;8.65;3.72;;;30.70;57.60;;;;;;5070016;28;20501;-68
2022/08/12 11:41:27;;;;;;;11.93;4.22;;;30.60;54.90;;;;;;5067050;28;20120;-68
2022/08/12 11:43:53;;;;;;;5.07;4.00;;;30.60;56.00;;;;;;5051871;28;20112;-68
2022/08/12 11:46:19;;;;;;;5.75;4.40;;;30.70;56.10;;;;;;5047510;28;20466;-68
2022/08/12 11:48:44;;;;;;;9.63;4.40;;;30.80;55.50;;;;;;5049661;28;20120;-68
2022/08/12 11:51:10;;;;;;;4.63;3.90;;;30.80;55.30;;;;;;5060842;28;20075;-68
2022/08/12 11:53:36;;;;;;;6.60;4.28;;;30.80;56.50;;;;;;5054947;28;20139;-68
2022/08/12 11:56:06;;;;;;;8.85;4.20;;;30.80;54.80;;;;;;5071318;28;20044;-68
2022/08/12 11:58:32;;;;;;;4.90;3.95;;;30.90;53.70;;;;;;5066014;28;20051;-68
2022/08/12 12:00:58;;;;;;;5.30;4.05;;;31.00;54.20;;;;;;5054599;28;20514;-68
2022/08/12 12:03:24;;;;;;;6.47;4.15;;;31.00;55.20;;;;;;5051154;28;20037;-68
2022/08/12 12:05:50;;;;;;;4.80;4.30;;;31.10;51.70;;;;;;5053401;28;20048;-68
2022/08/12 12:08:23;;;;;;;9.52;4.60;;;31.10;53.40;;;;;;5052395;28;20049;-68
2022/08/12 12:10:50;;;;;;;4.80;4.00;;;31.10;49.00;;;;;;5050423;28;20445;-68
2022/08/12 12:13:17;;;;;;;5.97;3.97;;;31.20;52.30;;;;;;5050324;28;20040;-68
2022/08/12 12:15:43;;;;;;;8.00;4.28;;;31.20;52.60;;;;;;5049229;28;20029;-68
2022/08/12 12:18:27;;;;;;;8.07;4.78;;;31.30;52.70;;;;;;5062160;28;20048;-68
2022/08/12 12:20:55;;;;;;;8.90;4.65;;;31.30;49.80;;;;;;5050469;28;20090;-68
2022/08/12 12:23:21;;;;;;;7.47;4.03;;;31.40;52.00;;;;;;5047923;28;20107;-68
2022/08/12 12:25:47;;;;;;;9.77;4.60;;;31.50;52.00;;;;;;5048900;28;20574;-68
2022/08/12 12:28:14;;;;;;;5.30;4.00;;;31.60;51.90;;;;;;5050484;28;20041;-68
2022/08/12 12:30:40;;;;;;;6.50;4.30;;;31.70;51.90;;;;;;5050692;28;20047;-68
2022/08/12 12:33:07;;;;;;;7.00;4.22;;;31.80;51.30;;;;;;5055779;28;20055;-68
2022/08/12 12:35:34;;;;;;;8.63;4.70;;;31.80;52.40;;;;;;5049914;28;20546;-68
2022/08/12 12:38:04;;;;;;;7.32;4.55;;;31.90;51.70;;;;;;5032637;28;20514;-68
2022/08/12 12:40:30;;;;;;;;;;;32.00;51.10;;;;;;5046408;28;20071;-68
2022/08/12 12:42:57;;;;;;;5.28;3.90;;;32.00;48.00;;;;;;5048815;28;19963;-68
2022/08/12 12:45:23;;;;;;;5.10;4.13;;;32.00;50.90;;;;;;5031976;28;20068;-68
2022/08/12 12:48:00;;;;;;;8.65;4.00;;;32.00;50.50;;;;;;5030479;28;20491;-68
2022/08/12 12:50:31;;;;;;;6.00;4.40;;;32.10;47.40;;;;;;5056931;28;20044;-68
2022/08/12 12:52:57;;;;;;;8.35;4.47;;;32.20;50.90;;;;;;5055330;28;20051;-68
2022/08/12 12:55:24;;;;;;;8.60;4.22;;;32.30;50.80;;;;;;5061496;28;20951;-68
2022/08/12 12:57:50;;;;;;;8.77;4.30;;;32.30;49.20;;;;;;5057461;28;20120;-66
2022/08/12 13:00:18;;;;;;;6.05;4.43;;;32.20;49.50;;;;;;5049602;28;20041;-66
2022/08/12 13:02:51;;;;;;;10.80;4.50;;;32.20;49.50;;;;;;5047375;28;20041;-66
2022/08/12 13:05:33;;;;;;;5.25;4.15;;;32.30;48.10;;;;;;5056480;28;20068;-66
2022/08/12 13:08:00;;;;;;;4.82;4.20;;;32.20;47.40;;;;;;5060524;28;20037;-66
2022/08/12 13:10:27;;;;;;;7.55;4.43;;;32.40;49.00;;;;;;5050468;28;20087;-66
2022/08/12 13:12:54;;;;;;;6.43;3.97;;;32.60;49.60;;;;;;5052859;28;20078;-66
2022/08/12 13:15:20;;;;;;;5.18;4.10;;;32.50;48.30;;;;;;5033212;28;20098;-67
2022/08/12 13:17:55;;;;;;;5.70;4.32;;;32.60;47.60;;;;;;5073962;28;20486;-67
2022/08/12 13:20:21;;;;;;;8.20;4.30;;;32.70;48.80;;;;;;5090463;28;20071;-67
2022/08/12 13:22:48;;;;;;;8.13;4.28;;;32.80;47.50;;;;;;5065303;28;20041;-67
2022/08/12 13:25:15;;;;;;;7.03;4.30;;;32.80;47.60;;;;;;5054875;28;20119;-67
2022/08/12 13:27:46;;;;;;;6.85;4.40;;;32.80;47.90;;;;;;5049796;28;20039;-66
2022/08/12 13:30:14;;;;;;;4.57;4.15;;;32.80;45.00;;;;;;5049389;28;20040;-66
2022/08/12 13:32:45;;;;;;;9.20;4.40;;;32.60;46.70;;;;;;5048926;28;20037;-68
2022/08/12 13:35:15;;;;;;;5.05;4.38;;;32.90;47.20;;;;;;5049938;28;20037;-68
2022/08/12 13:37:42;;;;;;;6.05;4.10;;;32.90;47.40;;;;;;5050068;28;20081;-68
2022/08/12 13:40:09;;;;;;;11.93;4.30;;;33.00;47.20;;;;;;5052373;28;20079;-68
2022/08/12 13:42:38;;;;;;;5.63;3.72;;;33.10;47.40;;;;;;5053519;28;20443;-68
2022/08/12 13:45:07;;;;;;;6.70;4.20;;;33.30;47.10;;;;;;5046436;28;20414;-68
2022/08/12 13:48:00;;;;;;;7.72;4.18;;;33.30;47.00;;;;;;5063967;28;20047;-68
2022/08/12 13:50:32;;;;;;;9.43;4.43;;;33.30;43.30;;;;;;5050191;28;20045;-68
2022/08/12 13:52:59;;;;;;;6.97;4.20;;;33.30;44.90;;;;;;5033240;28;20388;-67
2022/08/12 13:55:27;;;;;;;5.50;3.97;;;33.30;46.00;;;;;;5048810;28;20033;-68
2022/08/12 13:57:53;;;;;;;5.22;3.90;;;33.30;45.80;;;;;;5049928;28;20068;-68
2022/08/12 14:00:20;;;;;;;6.25;4.30;;;33.20;45.30;;;;;;5048274;28;20048;-68
2022/08/12 14:02:46;;;;;;;6.60;4.40;;;33.20;45.30;;;;;;5048172;28;20057;-68
2022/08/12 14:05:13;;;;;;;5.55;3.90;;;33.30;46.30;;;;;;5051130;28;20110;-68
2022/08/12 14:07:53;;;;;;;5.60;4.30;;;33.40;46.30;;;;;;5068527;28;20492;-68
2022/08/12 14:10:36;;;;;;;8.37;4.53;;;33.50;45.00;;;;;;5066319;28;20624;-68
2022/08/12 14:13:05;;;;;;;5.90;4.22;;;33.50;46.60;;;;;;5049307;28;20282;-68
2022/08/12 14:15:35;;;;;;;9.50;4.50;;;33.60;46.80;;;;;;5072029;28;20040;-68
2022/08/12 14:18:05;;;;;;;;;;;33.70;45.70;;;;;;5087936;28;20107;-68
2022/08/12 14:20:31;;;;;;;5.88;4.22;;;33.70;43.20;;;;;;5059518;28;19917;-68
2022/08/12 14:22:58;;;;;;;8.52;4.18;;;33.80;47.40;;;;;;5054695;28;20059;-68
2022/08/12 14:25:27;;;;;;;6.13;4.00;;;33.60;45.90;;;;;;5034581;28;20049;-68
2022/08/12 14:28:02;;;;;;;4.80;3.72;;;33.50;46.60;;;;;;5067486;28;20040;-68
2022/08/12 14:30:29;;;;;;;6.43;3.92;;;33.70;46.40;;;;;;5066039;28;20082;-68
2022/08/12 14:32:54;;;;;;;8.45;3.97;;;33.60;44.20;;;;;;5064830;28;20497;-68
2022/08/12 14:35:20;;;;;;;8.65;3.60;;;33.50;44.70;;;;;;5041172;28;20033;-68
2022/08/12 14:37:48;;;;;;;9.57;3.58;;;33.70;46.60;;;;;;5054579;28;20430;-68
2022/08/12 14:40:14;;;;;;;9.38;3.80;;;33.80;46.30;;;;;;5052464;28;20115;-68
2022/08/12 14:42:40;;;;;;;4.68;3.50;;;33.90;45.80;;;;;;5052165;28;20167;-68
2022/08/12 14:45:06;;;;;;;5.75;3.63;;;34.00;46.20;;;;;;5052638;28;20139;-68